createdAt,value
2019-05-25T00:01:56.722Z,3.57
2019-05-25T00:04:24.445Z,3.80
2019-05-25T00:06:52.157Z,3.77
2019-05-25T00:09:19.774Z,3.80
2019-05-25T00:11:47.436Z,3.63
2019-05-25T00:14:15.025Z,3.30
2019-05-25T00:16:42.769Z,3.57
2019-05-25T00:19:10.333Z,3.97
2019-05-25T00:21:37.929Z,3.50
2019-05-25T00:24:12.135Z,3.43
2019-05-25T00:26:35.067Z,3.50
2019-05-25T00:29:02.696Z,3.80
2019-05-25T00:31:30.327Z,3.67
2019-05-25T00:33:57.881Z,3.80
2019-05-25T00:36:25.485Z,3.77
2019-05-25T00:38:53.078Z,3.73
2019-05-25T00:41:20.778Z,3.47
2019-05-25T00:43:48.466Z,4.00
2019-05-25T00:46:16.055Z,3.60
2019-05-25T00:48:43.643Z,3.80
2019-05-25T00:51:11.233Z,4.20
2019-05-25T00:53:38.844Z,3.70
2019-05-25T00:56:06.539Z,3.63
2019-05-25T00:58:34.311Z,3.37
2019-05-25T01:01:01.995Z,4.10
2019-05-25T01:03:29.605Z,3.70
2019-05-25T01:05:57.229Z,3.77
2019-05-25T01:08:24.877Z,3.87
2019-05-25T01:10:52.489Z,4.20
2019-05-25T01:13:20.089Z,3.90
2019-05-25T01:15:47.813Z,3.93
2019-05-25T01:18:15.453Z,3.70
2019-05-25T01:20:43.318Z,4.03
2019-05-25T01:23:10.963Z,4.03
2019-05-25T01:25:38.706Z,3.60
2019-05-25T01:28:06.305Z,3.60
2019-05-25T01:30:33.920Z,3.40
2019-05-25T01:33:01.537Z,3.97
2019-05-25T01:35:29.129Z,3.53
2019-05-25T01:37:56.717Z,3.80
2019-05-25T01:40:24.309Z,4.00
2019-05-25T01:42:51.914Z,3.57
2019-05-25T01:45:19.511Z,3.83
2019-05-25T01:47:47.213Z,3.73
2019-05-25T01:50:14.879Z,3.63
2019-05-25T01:52:42.478Z,3.60
2019-05-25T01:55:10.400Z,3.70
2019-05-25T01:57:38.130Z,3.63
2019-05-25T02:00:06.581Z,3.60
2019-05-25T02:02:34.325Z,3.90
2019-05-25T02:05:01.988Z,3.70
2019-05-25T02:07:29.590Z,3.87
2019-05-25T02:09:57.200Z,3.80
2019-05-25T02:12:24.848Z,3.60
2019-05-25T02:14:52.633Z,4.07
2019-05-25T02:17:20.285Z,3.60
2019-05-25T02:19:48.037Z,4.03
2019-05-25T02:22:16.477Z,3.97
2019-05-25T02:24:44.198Z,3.90
2019-05-25T02:27:11.851Z,3.40
2019-05-25T02:29:39.433Z,4.00
2019-05-25T02:32:07.201Z,3.80
2019-05-25T02:34:34.994Z,4.17
2019-05-25T02:37:02.654Z,4.10
2019-05-25T02:39:30.234Z,3.60
2019-05-25T02:41:57.880Z,3.90
2019-05-25T02:44:25.571Z,4.00
2019-05-25T02:46:53.473Z,3.53
2019-05-25T02:49:21.102Z,4.00
2019-05-25T02:51:48.762Z,3.87
2019-05-25T02:54:16.388Z,3.47
2019-05-25T02:56:43.992Z,3.70
2019-05-25T02:59:11.617Z,4.00
2019-05-25T03:01:39.256Z,3.73
2019-05-25T03:04:06.929Z,4.00
2019-05-25T03:06:34.717Z,3.60
2019-05-25T03:09:04.969Z,4.40
2019-05-25T03:11:32.717Z,3.93
2019-05-25T03:14:00.612Z,4.27
2019-05-25T03:16:28.282Z,3.80
2019-05-25T03:18:55.920Z,3.90
2019-05-25T03:21:23.497Z,4.30
2019-05-25T03:23:51.133Z,4.10
2019-05-25T03:26:18.736Z,4.20
2019-05-25T03:28:46.497Z,4.00
2019-05-25T03:31:14.176Z,3.93
2019-05-25T03:33:41.913Z,4.13
2019-05-25T03:36:09.789Z,4.10
2019-05-25T03:38:37.531Z,4.27
2019-05-25T03:41:05.307Z,4.03
2019-05-25T03:43:32.913Z,4.00
2019-05-25T03:46:00.537Z,4.27
2019-05-25T03:48:28.189Z,3.80
2019-05-25T03:50:56.517Z,4.17
2019-05-25T03:53:24.137Z,4.90
2019-05-25T03:56:04.889Z,4.33
2019-05-25T03:58:21.290Z,4.20
2019-05-25T04:00:48.902Z,4.23
2019-05-25T04:03:16.568Z,4.40
2019-05-25T04:05:44.235Z,4.43
2019-05-25T04:08:11.887Z,4.13
2019-05-25T04:10:39.646Z,3.90
2019-05-25T04:13:07.348Z,3.90
2019-05-25T04:15:35.044Z,3.80
2019-05-25T04:18:02.658Z,4.00
2019-05-25T04:20:30.373Z,3.90
2019-05-25T04:22:58.094Z,3.80
2019-05-25T04:25:25.765Z,4.00
2019-05-25T04:27:53.430Z,4.20
2019-05-25T04:30:21.295Z,3.97
2019-05-25T04:32:48.957Z,4.37
2019-05-25T04:35:16.837Z,4.33
2019-05-25T04:37:44.478Z,3.87
2019-05-25T04:40:12.510Z,4.03
2019-05-25T04:42:40.236Z,3.77
2019-05-25T04:45:09.222Z,3.97
2019-05-25T04:47:36.963Z,4.23
2019-05-25T04:50:05.233Z,4.20
2019-05-25T04:52:33.641Z,3.90
2019-05-25T04:55:01.231Z,3.90
2019-05-25T04:57:28.829Z,4.07
2019-05-25T04:59:56.431Z,4.03
2019-05-25T05:02:24.033Z,4.10
2019-05-25T05:04:51.730Z,4.53
2019-05-25T05:07:19.277Z,4.40
2019-05-25T05:10:01.803Z,4.17
2019-05-25T05:12:16.420Z,4.10
2019-05-25T05:14:44.026Z,4.00
2019-05-25T05:17:13.614Z,3.80
2019-05-25T05:19:41.249Z,4.30
2019-05-25T05:22:08.889Z,3.83
2019-05-25T05:24:36.520Z,4.70
2019-05-25T05:27:04.125Z,4.03
2019-05-25T05:29:31.721Z,4.97
2019-05-25T05:31:59.401Z,4.57
2019-05-25T05:34:27.046Z,4.60
2019-05-25T05:36:55.333Z,4.73
2019-05-25T05:39:24.778Z,4.67
2019-05-25T05:41:54.241Z,4.93
2019-05-25T05:44:23.350Z,5.37
2019-05-25T05:46:52.433Z,4.90
2019-05-25T05:49:20.482Z,5.80
2019-05-25T05:51:49.370Z,6.37
2019-05-25T05:54:18.643Z,5.67
2019-05-25T05:56:46.237Z,6.20
2019-05-25T05:59:13.853Z,6.23
2019-05-25T06:01:41.454Z,6.50
2019-05-25T06:04:09.077Z,5.77
2019-05-25T06:06:36.689Z,6.13
2019-05-25T06:09:06.423Z,6.17
2019-05-25T06:11:34.130Z,5.70
2019-05-25T06:14:01.741Z,6.17
2019-05-25T06:16:29.357Z,5.60
2019-05-25T06:18:56.958Z,5.80
2019-05-25T06:21:24.569Z,5.60
2019-05-25T06:23:52.185Z,4.73
2019-05-25T06:26:19.826Z,4.50
2019-05-25T06:28:47.465Z,4.90
2019-05-25T06:31:15.053Z,4.90
2019-05-25T06:33:42.649Z,4.80
2019-05-25T06:36:10.349Z,4.80
2019-05-25T06:38:38.156Z,4.60
2019-05-25T06:41:08.587Z,4.70
2019-05-25T06:43:35.230Z,4.43
2019-05-25T06:46:02.944Z,4.70
2019-05-25T06:48:30.593Z,4.90
2019-05-25T06:50:58.225Z,5.10
2019-05-25T06:53:25.830Z,5.70
2019-05-25T06:55:53.441Z,6.63
2019-05-25T06:58:21.071Z,6.53
2019-05-25T07:00:48.763Z,5.67
2019-05-25T07:03:16.437Z,6.17
2019-05-25T07:05:44.053Z,6.03
2019-05-25T07:08:11.761Z,6.43
2019-05-25T07:10:39.401Z,6.37
2019-05-25T07:13:07.095Z,7.90
2019-05-25T07:15:34.723Z,7.23
2019-05-25T07:18:02.385Z,7.47
2019-05-25T07:20:29.990Z,7.67
2019-05-25T07:22:57.590Z,7.20
2019-05-25T07:25:25.275Z,7.37
2019-05-25T07:27:59.637Z,8.10
2019-05-25T07:30:23.041Z,7.40
2019-05-25T07:32:50.816Z,7.20
2019-05-25T07:35:18.409Z,6.87
2019-05-25T07:37:46.094Z,7.63
2019-05-25T07:40:13.898Z,7.50
2019-05-25T07:42:41.549Z,7.03
2019-05-25T07:45:09.570Z,8.10
2019-05-25T07:47:37.765Z,8.23
2019-05-25T07:50:05.923Z,7.63
2019-05-25T07:52:33.578Z,7.83
2019-05-25T07:55:01.524Z,7.87
2019-05-25T07:57:29.081Z,7.73
2019-05-25T07:59:56.727Z,7.93
2019-05-25T08:02:24.393Z,8.93
2019-05-25T08:04:52.024Z,8.20
2019-05-25T08:07:19.601Z,8.47
2019-05-25T08:09:47.277Z,8.03
2019-05-25T08:12:14.973Z,7.57
2019-05-25T08:14:45.054Z,8.77
2019-05-25T08:17:12.149Z,7.67
2019-05-25T08:19:39.818Z,7.83
2019-05-25T08:22:17.019Z,8.30
2019-05-25T08:24:44.609Z,7.80
2019-05-25T08:27:12.385Z,8.00
2019-05-25T08:29:40.154Z,8.47
2019-05-25T08:32:07.942Z,8.30
2019-05-25T08:34:35.546Z,8.63
2019-05-25T08:37:03.253Z,9.00
2019-05-25T08:39:30.889Z,8.60
2019-05-25T08:41:58.513Z,8.70
2019-05-25T08:44:26.113Z,8.60
2019-05-25T08:46:55.545Z,9.03
2019-05-25T08:49:23.187Z,9.37
2019-05-25T08:51:51.485Z,9.47
2019-05-25T08:54:20.625Z,10.40
2019-05-25T08:56:48.273Z,9.70
2019-05-25T08:59:15.873Z,10.20
2019-05-25T09:01:43.498Z,9.90
2019-05-25T09:04:11.341Z,11.07
2019-05-25T09:06:38.952Z,10.90
2019-05-25T09:09:06.897Z,10.57
2019-05-25T09:11:34.489Z,11.13
2019-05-25T09:14:02.109Z,11.27
2019-05-25T09:16:29.720Z,10.47
2019-05-25T09:18:58.249Z,10.73
2019-05-25T09:21:26.161Z,11.30
2019-05-25T09:24:02.234Z,10.23
2019-05-25T09:26:30.019Z,11.30
2019-05-25T09:29:04.538Z,11.50
2019-05-25T09:31:27.192Z,10.87
2019-05-25T09:33:54.833Z,10.90
2019-05-25T09:36:22.498Z,11.73
2019-05-25T09:38:50.109Z,11.50
2019-05-25T09:41:17.704Z,11.17
2019-05-25T09:43:45.345Z,11.03
2019-05-25T09:46:13.013Z,10.77
2019-05-25T09:48:40.658Z,10.40
2019-05-25T09:51:15.185Z,10.27
2019-05-25T09:53:37.946Z,9.97
2019-05-25T09:56:05.469Z,10.33
2019-05-25T09:58:33.113Z,10.53
2019-05-25T10:01:00.729Z,10.23
2019-05-25T10:03:28.351Z,10.60
2019-05-25T10:05:55.933Z,10.73
2019-05-25T10:08:23.521Z,10.77
2019-05-25T10:10:51.137Z,11.00
2019-05-25T10:13:18.738Z,10.90
2019-05-25T10:15:46.438Z,10.97
2019-05-25T10:18:14.130Z,11.27
2019-05-25T10:20:41.841Z,10.80
2019-05-25T10:23:09.578Z,11.30
2019-05-25T10:25:37.237Z,11.57
2019-05-25T10:28:04.913Z,11.40
2019-05-25T10:30:32.504Z,11.93
2019-05-25T10:33:05.123Z,11.70
2019-05-25T10:35:32.775Z,11.83
2019-05-25T10:38:00.408Z,11.30
2019-05-25T10:40:28.047Z,11.83
2019-05-25T10:42:55.617Z,11.80
2019-05-25T10:45:23.236Z,11.67
2019-05-25T10:47:50.854Z,13.57
2019-05-25T10:50:18.787Z,11.90
2019-05-25T10:52:46.502Z,12.60
2019-05-25T10:55:14.445Z,12.73
2019-05-25T10:57:42.345Z,12.97
2019-05-25T11:00:10.973Z,11.93
2019-05-25T11:02:38.595Z,12.53
2019-05-25T11:05:06.645Z,12.77
2019-05-25T11:07:35.931Z,12.70
2019-05-25T11:10:04.105Z,13.37
2019-05-25T11:12:31.769Z,12.17
2019-05-25T11:14:59.408Z,12.70
2019-05-25T11:17:26.987Z,12.90
2019-05-25T11:19:54.592Z,13.33
2019-05-25T11:22:22.219Z,13.17
2019-05-25T11:24:49.959Z,13.40
2019-05-25T11:27:17.612Z,13.47
2019-05-25T11:29:45.259Z,12.80
2019-05-25T11:32:12.877Z,12.83
2019-05-25T11:34:40.670Z,12.63
2019-05-25T11:37:08.274Z,13.20
2019-05-25T11:39:35.911Z,12.83
2019-05-25T11:42:03.603Z,12.80
2019-05-25T11:44:45.441Z,12.80
2019-05-25T11:47:13.073Z,12.03
2019-05-25T11:49:41.033Z,12.27
2019-05-25T11:52:08.630Z,12.27
2019-05-25T11:54:36.285Z,12.80
2019-05-25T11:57:03.913Z,11.60
2019-05-25T11:59:31.545Z,11.40
2019-05-25T12:01:59.169Z,12.10
2019-05-25T12:04:26.791Z,11.27
2019-05-25T12:06:54.389Z,11.97
2019-05-25T12:09:22.004Z,11.50
2019-05-25T12:11:49.642Z,11.77
2019-05-25T12:14:17.257Z,12.23
2019-05-25T12:16:44.900Z,12.03
2019-05-25T12:19:14.885Z,12.10
2019-05-25T12:21:42.966Z,11.53
2019-05-25T12:24:10.724Z,11.20
2019-05-25T12:26:38.323Z,10.47
2019-05-25T12:29:05.999Z,10.30
2019-05-25T12:31:33.597Z,11.87
2019-05-25T12:34:01.205Z,11.07
2019-05-25T12:36:28.846Z,11.40
2019-05-25T12:38:56.545Z,11.00
2019-05-25T12:41:24.157Z,10.77
2019-05-25T12:43:51.777Z,10.80
2019-05-25T12:46:19.393Z,11.17
2019-05-25T12:48:47.205Z,10.50
2019-05-25T12:51:17.624Z,9.40
2019-05-25T12:53:44.306Z,9.80
2019-05-25T12:56:11.966Z,10.27
2019-05-25T12:58:39.586Z,9.83
2019-05-25T13:01:07.160Z,9.93
2019-05-25T13:03:34.805Z,10.80
2019-05-25T13:06:02.405Z,10.50
2019-05-25T13:08:30.053Z,10.73
2019-05-25T13:10:57.746Z,10.63
2019-05-25T13:13:25.407Z,10.37
2019-05-25T13:15:53.066Z,10.77
2019-05-25T13:18:20.682Z,11.07
2019-05-25T13:20:48.364Z,12.07
2019-05-25T13:23:16.046Z,11.27
2019-05-25T13:25:43.661Z,11.40
2019-05-25T13:28:11.385Z,11.73
2019-05-25T13:30:38.969Z,11.20
2019-05-25T13:33:06.569Z,10.07
2019-05-25T13:35:34.217Z,9.67
2019-05-25T13:38:01.862Z,10.80
2019-05-25T13:40:29.478Z,10.73
2019-05-25T13:42:57.097Z,10.80
2019-05-25T13:45:24.742Z,11.90
2019-05-25T13:47:52.334Z,11.17
2019-05-25T13:50:19.972Z,11.17
2019-05-25T13:52:47.636Z,10.20
2019-05-25T13:55:15.240Z,9.13
2019-05-25T13:57:42.988Z,9.07
2019-05-25T14:00:11.262Z,9.57
2019-05-25T14:02:38.848Z,8.40
2019-05-25T14:05:07.264Z,7.80
2019-05-25T14:07:34.853Z,8.97
2019-05-25T14:10:02.722Z,7.97
2019-05-25T14:12:30.302Z,7.00
2019-05-25T14:14:58.111Z,6.80
2019-05-25T14:17:25.731Z,6.67
2019-05-25T14:19:53.373Z,4.90
2019-05-25T14:22:20.954Z,4.47
2019-05-25T14:24:48.642Z,3.53
2019-05-25T14:27:16.326Z,2.90
2019-05-25T14:29:44.203Z,2.90
2019-05-25T14:32:11.914Z,2.83
2019-05-25T14:34:39.500Z,2.80
2019-05-25T14:37:07.963Z,2.70
2019-05-25T14:39:35.597Z,2.87
2019-05-25T14:42:04.144Z,3.00
2019-05-25T14:44:31.894Z,3.00
2019-05-25T14:46:59.474Z,2.80
2019-05-25T14:49:27.097Z,3.00
2019-05-25T14:51:54.799Z,2.93
2019-05-25T14:54:23.004Z,3.00
2019-05-25T14:56:50.644Z,3.20
2019-05-25T14:59:18.278Z,3.17
2019-05-25T15:02:01.568Z,3.60
2019-05-25T15:04:15.529Z,3.00
2019-05-25T15:06:43.190Z,3.10
2019-05-25T15:09:10.814Z,3.27
2019-05-25T15:11:39.638Z,3.73
2019-05-25T15:14:07.325Z,3.20
2019-05-25T15:16:35.107Z,3.70
2019-05-25T15:19:02.813Z,6.00
2019-05-25T15:21:30.622Z,4.70
2019-05-25T15:23:58.207Z,4.00
2019-05-25T15:26:25.858Z,4.00
2019-05-25T15:28:53.541Z,3.37
2019-05-25T15:31:21.309Z,3.67
2019-05-25T15:33:48.922Z,3.77
2019-05-25T15:36:16.592Z,4.03
2019-05-25T15:38:44.421Z,4.20
2019-05-25T15:41:12.173Z,4.10
2019-05-25T15:43:39.816Z,3.63
2019-05-25T15:46:07.414Z,4.10
2019-05-25T15:48:35.033Z,4.40
2019-05-25T15:51:02.632Z,5.40
2019-05-25T15:53:30.222Z,4.50
2019-05-25T15:55:57.851Z,4.03
2019-05-25T15:58:25.442Z,3.70
2019-05-25T16:00:53.035Z,4.17
2019-05-25T16:03:20.837Z,4.23
2019-05-25T16:05:48.749Z,4.30
2019-05-25T16:08:17.593Z,5.00
2019-05-25T16:10:45.948Z,4.90
2019-05-25T16:13:13.698Z,5.30
2019-05-25T16:15:41.329Z,5.10
2019-05-25T16:18:08.950Z,4.90
2019-05-25T16:20:36.614Z,4.90
2019-05-25T16:23:04.239Z,4.33
2019-05-25T16:25:31.872Z,4.77
2019-05-25T16:27:59.494Z,4.27
2019-05-25T16:30:31.068Z,3.77
2019-05-25T16:35:26.230Z,4.80
2019-05-25T16:37:07.726Z,4.27
2019-05-25T16:37:54.063Z,4.80
2019-05-25T16:40:22.670Z,4.80
2019-05-25T16:42:50.290Z,4.90
2019-05-25T16:45:18.181Z,5.33
2019-05-25T16:47:45.918Z,4.90
2019-05-25T16:50:15.047Z,5.10
2019-05-25T16:52:42.912Z,5.10
2019-05-25T16:55:10.592Z,5.37
2019-05-25T16:57:38.317Z,5.57
2019-05-25T17:00:06.534Z,5.83
2019-05-25T17:02:34.183Z,5.70
2019-05-25T17:05:01.797Z,6.10
2019-05-25T17:07:29.412Z,6.23
2019-05-25T17:09:57.051Z,6.07
2019-05-25T17:12:25.513Z,6.47
2019-05-25T17:14:53.231Z,5.70
2019-05-25T17:17:20.829Z,6.13
2019-05-25T17:19:48.546Z,6.23
2019-05-25T17:22:16.375Z,5.93
2019-05-25T17:24:44.149Z,6.40
2019-05-25T17:27:11.798Z,5.93
2019-05-25T17:29:39.434Z,6.23
2019-05-25T17:32:07.076Z,5.77
2019-05-25T17:34:34.717Z,7.23
2019-05-25T17:37:02.313Z,7.50
2019-05-25T17:39:30.033Z,7.90
2019-05-25T17:41:57.682Z,8.13
2019-05-25T17:44:25.298Z,8.03
2019-05-25T17:46:52.935Z,8.03
2019-05-25T17:49:20.524Z,7.73
2019-05-25T17:51:51.481Z,7.13
2019-05-25T17:54:19.138Z,7.53
2019-05-25T17:56:46.898Z,7.93
2019-05-25T17:59:14.477Z,8.90
2019-05-25T18:01:42.126Z,8.07
2019-05-25T18:04:09.830Z,7.73
2019-05-25T18:06:37.433Z,8.07
2019-05-25T18:09:06.569Z,8.57
2019-05-25T18:11:34.148Z,7.97
2019-05-25T18:14:01.900Z,8.50
2019-05-25T18:16:29.536Z,8.67
2019-05-25T18:18:57.142Z,8.63
2019-05-25T18:21:24.762Z,8.87
2019-05-25T18:23:52.354Z,8.40
2019-05-25T18:26:20.104Z,7.80
2019-05-25T18:28:47.897Z,7.90
2019-05-25T18:31:15.565Z,8.37
2019-05-25T18:33:43.210Z,8.20
2019-05-25T18:36:10.838Z,7.80
2019-05-25T18:38:38.453Z,8.60
2019-05-25T18:41:06.109Z,8.10
2019-05-25T18:43:33.785Z,8.00
2019-05-25T18:46:01.431Z,7.13
2019-05-25T18:48:29.005Z,8.23
2019-05-25T18:50:56.654Z,8.90
2019-05-25T18:53:24.325Z,7.80
2019-05-25T18:55:52.490Z,8.03
2019-05-25T18:58:20.106Z,7.93
2019-05-25T19:00:47.912Z,8.53
2019-05-25T19:03:15.673Z,8.47
2019-05-25T19:05:43.342Z,8.17
2019-05-25T19:08:10.933Z,8.43
2019-05-25T19:10:38.602Z,8.30
2019-05-25T19:13:06.186Z,8.80
2019-05-25T19:15:33.818Z,8.70
2019-05-25T19:18:01.515Z,9.17
2019-05-25T19:20:29.145Z,8.87
2019-05-25T19:22:56.761Z,9.63
2019-05-25T19:25:24.365Z,8.40
2019-05-25T19:27:52.009Z,9.63
2019-05-25T19:30:19.999Z,9.70
2019-05-25T19:32:47.826Z,10.30
2019-05-25T19:35:15.609Z,9.70
2019-05-25T19:37:43.221Z,9.37
2019-05-25T19:40:11.021Z,9.40
2019-05-25T19:42:38.689Z,9.37
2019-05-25T19:45:07.381Z,9.47
2019-05-25T19:47:35.002Z,9.63
2019-05-25T19:50:05.154Z,9.00
2019-05-25T19:52:32.258Z,9.70
2019-05-25T19:54:59.869Z,10.00
2019-05-25T19:57:28.334Z,9.17
2019-05-25T19:59:55.975Z,8.60
2019-05-25T20:02:23.624Z,8.80
2019-05-25T20:04:51.278Z,8.57
2019-05-25T20:07:18.876Z,8.20
2019-05-25T20:09:48.537Z,8.20
2019-05-25T20:12:16.181Z,8.50
2019-05-25T20:14:43.782Z,8.23
2019-05-25T20:17:11.377Z,8.70
2019-05-25T20:19:38.981Z,8.70
2019-05-25T20:22:09.077Z,8.30
2019-05-25T20:24:35.986Z,9.20
2019-05-25T20:27:03.703Z,8.93
2019-05-25T20:29:31.365Z,8.83
2019-05-25T20:31:58.945Z,9.43
2019-05-25T20:34:26.593Z,9.63
2019-05-25T20:36:54.165Z,9.03
2019-05-25T20:39:21.773Z,10.23
2019-05-25T20:41:49.401Z,9.90
2019-05-25T20:44:17.074Z,9.67
2019-05-25T20:46:44.759Z,10.07
2019-05-25T20:49:12.631Z,10.40
2019-05-25T20:51:40.286Z,11.13
2019-05-25T20:54:08.706Z,10.17
2019-05-25T20:56:36.333Z,11.10
2019-05-25T20:59:03.908Z,11.87
2019-05-25T21:01:31.558Z,11.67
2019-05-25T21:03:59.150Z,12.00
2019-05-25T21:06:26.743Z,11.20
2019-05-25T21:08:54.393Z,11.90
2019-05-25T21:11:21.998Z,11.60
2019-05-25T21:13:49.736Z,11.90
2019-05-25T21:16:17.489Z,11.57
2019-05-25T21:18:45.199Z,12.00
2019-05-25T21:21:12.853Z,12.13
2019-05-25T21:23:41.485Z,12.43
2019-05-25T21:26:09.098Z,12.93
2019-05-25T21:28:36.710Z,12.23
2019-05-25T21:31:04.345Z,12.00
2019-05-25T21:33:31.949Z,12.53
2019-05-25T21:36:08.463Z,13.67
2019-05-25T21:38:28.955Z,14.37
2019-05-25T21:40:56.571Z,14.13
2019-05-25T21:43:24.293Z,14.70
2019-05-25T21:45:51.922Z,15.13
2019-05-25T21:48:19.793Z,14.67
2019-05-25T21:50:47.496Z,14.93
2019-05-25T21:53:15.155Z,15.30
2019-05-25T21:55:42.815Z,14.03
2019-05-25T21:58:10.400Z,14.93
2019-05-25T22:00:39.413Z,14.70
2019-05-25T22:03:07.017Z,14.67
2019-05-25T22:05:34.651Z,14.50
2019-05-25T22:08:02.315Z,14.47
2019-05-25T22:10:29.917Z,12.73
2019-05-25T22:12:57.669Z,12.70
2019-05-25T22:15:25.494Z,12.47
2019-05-25T22:17:53.121Z,13.73
2019-05-25T22:20:21.058Z,13.67
2019-05-25T22:22:48.870Z,12.53
2019-05-25T22:25:17.934Z,12.60
2019-05-25T22:27:45.624Z,11.70
2019-05-25T22:30:13.526Z,11.07
2019-05-25T22:32:41.709Z,10.93
2019-05-25T22:35:09.660Z,11.80
2019-05-25T22:37:37.301Z,11.87
2019-05-25T22:40:05.078Z,11.37
2019-05-25T22:42:32.693Z,11.13
2019-05-25T22:45:00.334Z,11.43
2019-05-25T22:47:27.957Z,10.67
2019-05-25T22:49:55.782Z,10.73
2019-05-25T22:52:23.366Z,10.37
2019-05-25T22:54:51.101Z,10.20
2019-05-25T22:57:18.864Z,10.30
2019-05-25T22:59:46.633Z,9.50
2019-05-25T23:02:14.321Z,9.03
2019-05-25T23:04:43.880Z,9.60
2019-05-25T23:07:11.556Z,9.07
2019-05-25T23:09:39.167Z,8.73
2019-05-25T23:12:06.737Z,9.33
2019-05-25T23:14:34.349Z,8.47
2019-05-25T23:17:02.089Z,9.60
2019-05-25T23:19:29.665Z,9.27
2019-05-25T23:21:57.249Z,8.47
2019-05-25T23:24:25.061Z,9.20
2019-05-25T23:26:52.812Z,9.57
2019-05-25T23:29:20.429Z,8.73
2019-05-25T23:31:48.409Z,8.50
2019-05-25T23:34:15.987Z,8.43
2019-05-25T23:36:43.675Z,8.50
2019-05-25T23:39:11.281Z,8.43
2019-05-25T23:41:38.898Z,8.80
2019-05-25T23:44:06.497Z,9.00
2019-05-25T23:46:34.078Z,9.20
2019-05-25T23:49:01.714Z,9.27
2019-05-25T23:51:29.321Z,9.27
2019-05-25T23:53:56.929Z,8.27
2019-05-25T23:56:27.534Z,8.80
2019-05-25T23:58:55.141Z,8.13
